Enter the Airport ICAO Code

Search by Airport or City

Current Weather

ENGM | Oslo Airport, Gardermoen

Oslo, Norway

Last Update 14 Minutes Ago

Mostly Cloudy Sky

Temperature of 12 ºC

Moderate Winds from North

Temperature

12 ºC

Dew Point Temperature

04 ºC

Relative Humidity

58.12 %

Wind Direction

North (360º, Without Significant Variations)

Wind Velocity

19 km/h (10 kt)

Gusts

None

Visibility

Greater than 10 Kilometers

Sea Level Pressure

1003 hPa (Hectopascals)

Layers of Clouds

30% to 60% of Sky Covered from 1219 mts (4000 ft) Above Ground Level.

60% to 90% of Sky Covered from 1920 mts (6300 ft) Above Ground Level.

METAR ENGM 020120Z 36010KT 9999 SCT040 BKN063 12/04 Q1003

Weather Forecast

ENGM | Oslo Airport, Gardermoen

Oslo, Norway

Forecast valid for the next -50 Hours

From now on it is expected:

Mostly Cloudy Sky

Maximum Temperature

No Data

Minimum Temperature

No Data

TAF ENGM 0200/0224 02012KT 9999 FEW040 BKN060